sensor_id;sensor_type;location;lat;lon;timestamp;pressure;altitude;pressure_sealevel;temperature;humidity
42067;BME280;27734;47.028;28.820;2022-09-21T00:02:15;100370.80;;;9.08;68.61
42067;BME280;27734;47.028;28.820;2022-09-21T00:04:46;100374.16;;;9.04;68.53
42067;BME280;27734;47.028;28.820;2022-09-21T00:07:19;100374.03;;;9.01;69.07
42067;BME280;27734;47.028;28.820;2022-09-21T00:09:50;100373.97;;;8.99;68.93
42067;BME280;27734;47.028;28.820;2022-09-21T00:12:21;100361.64;;;8.97;69.25
42067;BME280;27734;47.028;28.820;2022-09-21T00:14:52;100367.66;;;8.94;68.66
42067;BME280;27734;47.028;28.820;2022-09-21T00:17:25;100372.91;;;8.94;69.17
42067;BME280;27734;47.028;28.820;2022-09-21T00:19:57;100373.72;;;8.93;68.90
42067;BME280;27734;47.028;28.820;2022-09-21T00:22:29;100376.46;;;8.96;69.42
42067;BME280;27734;47.028;28.820;2022-09-21T00:25:00;100365.99;;;8.96;68.87
42067;BME280;27734;47.028;28.820;2022-09-21T00:27:33;100372.11;;;8.97;69.21
42067;BME280;27734;47.028;28.820;2022-09-21T00:30:06;100369.61;;;9.00;69.01
42067;BME280;27734;47.028;28.820;2022-09-21T00:32:38;100372.23;;;9.00;69.21
42067;BME280;27734;47.028;28.820;2022-09-21T00:35:10;100377.34;;;8.97;69.50
42067;BME280;27734;47.028;28.820;2022-09-21T00:37:41;100374.54;;;8.92;69.34
42067;BME280;27734;47.028;28.820;2022-09-21T00:40:12;100371.73;;;8.88;69.14
42067;BME280;27734;47.028;28.820;2022-09-21T00:42:43;100376.84;;;8.85;69.63
42067;BME280;27734;47.028;28.820;2022-09-21T00:45:14;100377.63;;;8.82;69.92
42067;BME280;27734;47.028;28.820;2022-09-21T00:47:52;100375.71;;;8.78;69.88
42067;BME280;27734;47.028;28.820;2022-09-21T00:50:25;100375.59;;;8.75;69.55
42067;BME280;27734;47.028;28.820;2022-09-21T00:52:57;100378.95;;;8.72;70.05
42067;BME280;27734;47.028;28.820;2022-09-21T00:55:31;100373.72;;;8.72;70.31
42067;BME280;27734;47.028;28.820;2022-09-21T00:58:09;100374.58;;;8.71;69.90
42067;BME280;27734;47.028;28.820;2022-09-21T01:00:42;100374.45;;;8.68;70.25
42067;BME280;27734;47.028;28.820;2022-09-21T01:03:13;100372.59;;;8.66;70.28
42067;BME280;27734;47.028;28.820;2022-09-21T01:05:45;100365.38;;;8.60;69.79
42067;BME280;27734;47.028;28.820;2022-09-21T01:08:17;100372.59;;;8.66;70.78
42067;BME280;27734;47.028;28.820;2022-09-21T01:11:09;100363.80;;;8.63;71.04
42067;BME280;27734;47.028;28.820;2022-09-21T01:13:54;100363.67;;;8.60;70.74
42067;BME280;27734;47.028;28.820;2022-09-21T01:16:33;100361.88;;;8.59;70.83
42067;BME280;27734;47.028;28.820;2022-09-21T01:19:14;100356.77;;;8.62;71.03
42067;BME280;27734;47.028;28.820;2022-09-21T01:21:58;100355.03;;;8.63;71.40
42067;BME280;27734;47.028;28.820;2022-09-21T01:24:47;100357.46;;;8.58;71.28
42067;BME280;27734;47.028;28.820;2022-09-21T01:27:50;100353.77;;;8.53;71.02
42067;BME280;27734;47.028;28.820;2022-09-21T01:30:27;100355.37;;;8.50;71.08
42067;BME280;27734;47.028;28.820;2022-09-21T01:33:03;100356.20;;;8.49;70.84
42067;BME280;27734;47.028;28.820;2022-09-21T01:35:42;100361.42;;;8.49;71.64
42067;BME280;27734;47.028;28.820;2022-09-21T01:38:20;100362.30;;;8.49;71.26
42067;BME280;27734;47.028;28.820;2022-09-21T01:40:56;100359.75;;;8.51;71.60
42067;BME280;27734;47.028;28.820;2022-09-21T01:43:33;100360.67;;;8.51;71.22
42067;BME280;27734;47.028;28.820;2022-09-21T01:46:07;100368.58;;;8.53;71.87
42067;BME280;27734;47.028;28.820;2022-09-21T01:48:45;100368.58;;;8.53;71.97
42067;BME280;27734;47.028;28.820;2022-09-21T01:51:18;100366.84;;;8.53;71.27
42067;BME280;27734;47.028;28.820;2022-09-21T01:53:53;100362.44;;;8.52;71.35
42067;BME280;27734;47.028;28.820;2022-09-21T01:56:29;100365.11;;;8.54;71.33
42067;BME280;27734;47.028;28.820;2022-09-21T01:59:08;100371.39;;;8.57;71.82
42067;BME280;27734;47.028;28.820;2022-09-21T02:01:44;100370.59;;;8.60;71.56
42067;BME280;27734;47.028;28.820;2022-09-21T02:04:17;100367.04;;;8.58;72.33
42067;BME280;27734;47.028;28.820;2022-09-21T02:06:51;100368.70;;;8.56;72.06
42067;BME280;27734;47.028;28.820;2022-09-21T02:09:23;100370.41;;;8.55;71.81
42067;BME280;27734;47.028;28.820;2022-09-21T02:11:55;100370.47;;;8.57;71.95
42067;BME280;27734;47.028;28.820;2022-09-21T02:14:30;100375.77;;;8.58;72.35
42067;BME280;27734;47.028;28.820;2022-09-21T02:17:20;100381.12;;;8.61;72.03
42067;BME280;27734;47.028;28.820;2022-09-21T02:20:04;100381.19;;;8.63;72.25
42067;BME280;27734;47.028;28.820;2022-09-21T02:22:43;100379.49;;;8.63;72.88
42067;BME280;27734;47.028;28.820;2022-09-21T02:25:24;100378.64;;;8.64;73.00
42067;BME280;27734;47.028;28.820;2022-09-21T02:28:03;100384.78;;;8.65;72.90
42067;BME280;27734;47.028;28.820;2022-09-21T02:30:37;100381.25;;;8.64;72.65
42067;BME280;27734;47.028;28.820;2022-09-21T02:33:14;100395.31;;;8.67;73.11
42067;BME280;27734;47.028;28.820;2022-09-21T02:35:51;100390.97;;;8.67;72.67
42067;BME280;27734;47.028;28.820;2022-09-21T02:38:35;100390.27;;;8.71;73.21
42067;BME280;27734;47.028;28.820;2022-09-21T02:41:12;100388.61;;;8.73;72.78
42067;BME280;27734;47.028;28.820;2022-09-21T02:43:48;100387.84;;;8.76;73.49
42067;BME280;27734;47.028;28.820;2022-09-21T02:46:26;100386.17;;;8.78;73.15
42067;BME280;27734;47.028;28.820;2022-09-21T02:49:02;100385.42;;;8.80;73.39
42067;BME280;27734;47.028;28.820;2022-09-21T02:51:41;100381.95;;;8.81;73.66
42067;BME280;27734;47.028;28.820;2022-09-21T02:54:18;100384.63;;;8.83;73.64
42067;BME280;27734;47.028;28.820;2022-09-21T02:56:54;100389.05;;;8.84;73.42
42067;BME280;27734;47.028;28.820;2022-09-21T02:59:25;100373.28;;;8.83;73.66
42067;BME280;27734;47.028;28.820;2022-09-21T03:01:57;100379.40;;;8.83;73.44
42067;BME280;27734;47.028;28.820;2022-09-21T03:04:28;100375.14;;;8.85;73.85
42067;BME280;27734;47.028;28.820;2022-09-21T03:06:59;100387.38;;;8.86;73.99
42067;BME280;27734;47.028;28.820;2022-09-21T03:09:30;100376.91;;;8.86;73.99
42067;BME280;27734;47.028;28.820;2022-09-21T03:12:02;100375.14;;;8.85;73.99
42067;BME280;27734;47.028;28.820;2022-09-21T03:14:33;100372.53;;;8.85;73.72
42067;BME280;27734;47.028;28.820;2022-09-21T03:17:05;100380.31;;;8.84;73.75
42067;BME280;27734;47.028;28.820;2022-09-21T03:19:36;100373.34;;;8.84;73.92
42067;BME280;27734;47.028;28.820;2022-09-21T03:22:07;100374.04;;;8.80;74.28
42067;BME280;27734;47.028;28.820;2022-09-21T03:24:38;100383.63;;;8.79;74.28
42067;BME280;27734;47.028;28.820;2022-09-21T03:27:16;100384.45;;;8.78;74.28
42067;BME280;27734;47.028;28.820;2022-09-21T03:29:48;100388.73;;;8.76;74.36
42067;BME280;27734;47.028;28.820;2022-09-21T03:32:19;100395.70;;;8.76;74.12
42067;BME280;27734;47.028;28.820;2022-09-21T03:34:50;100394.72;;;8.74;73.87
42067;BME280;27734;47.028;28.820;2022-09-21T03:37:21;100394.84;;;8.77;74.66
42067;BME280;27734;47.028;28.820;2022-09-21T03:39:52;100388.80;;;8.78;74.19
42067;BME280;27734;47.028;28.820;2022-09-21T03:42:24;100389.67;;;8.78;74.48
42067;BME280;27734;47.028;28.820;2022-09-21T03:44:55;100393.20;;;8.79;74.52
42067;BME280;27734;47.028;28.820;2022-09-21T03:47:26;100391.53;;;8.81;74.84
42067;BME280;27734;47.028;28.820;2022-09-21T03:49:57;100391.59;;;8.83;74.56
42067;BME280;27734;47.028;28.820;2022-09-21T03:52:28;100389.05;;;8.84;74.63
42067;BME280;27734;47.028;28.820;2022-09-21T03:55:00;100396.14;;;8.87;74.63
42067;BME280;27734;47.028;28.820;2022-09-21T03:57:32;100397.84;;;8.86;75.05
42067;BME280;27734;47.028;28.820;2022-09-21T04:00:06;100398.75;;;8.87;74.64
42067;BME280;27734;47.028;28.820;2022-09-21T04:02:39;100405.69;;;8.86;75.18
42067;BME280;27734;47.028;28.820;2022-09-21T04:05:13;100415.28;;;8.86;74.88
42067;BME280;27734;47.028;28.820;2022-09-21T04:07:45;100414.45;;;8.87;75.01
42067;BME280;27734;47.028;28.820;2022-09-21T04:10:18;100424.01;;;8.86;74.86
42067;BME280;27734;47.028;28.820;2022-09-21T04:12:50;100411.84;;;8.87;74.95
42067;BME280;27734;47.028;28.820;2022-09-21T04:15:21;100418.91;;;8.89;75.36
42067;BME280;27734;47.028;28.820;2022-09-21T04:17:53;100423.31;;;8.90;75.42
42067;BME280;27734;47.028;28.820;2022-09-21T04:20:24;100427.80;;;8.93;75.25
42067;BME280;27734;47.028;28.820;2022-09-21T04:22:55;100424.33;;;8.94;75.16
42067;BME280;27734;47.028;28.820;2022-09-21T04:25:27;100424.45;;;8.97;75.57
42067;BME280;27734;47.028;28.820;2022-09-21T04:27:58;100423.75;;;9.01;75.09
42067;BME280;27734;47.028;28.820;2022-09-21T04:30:32;100423.95;;;9.06;75.52
42067;BME280;27734;47.028;28.820;2022-09-21T04:33:04;100422.27;;;9.08;75.31
42067;BME280;27734;47.028;28.820;2022-09-21T04:35:35;100424.95;;;9.09;75.76
42067;BME280;27734;47.028;28.820;2022-09-21T04:38:08;100419.78;;;9.11;75.71
42067;BME280;27734;47.028;28.820;2022-09-21T04:40:39;100420.66;;;9.11;75.19
42067;BME280;27734;47.028;28.820;2022-09-21T04:43:11;100430.50;;;9.17;75.52
42067;BME280;27734;47.028;28.820;2022-09-21T04:45:42;100428.13;;;9.23;75.34
42067;BME280;27734;47.028;28.820;2022-09-21T04:48:17;100424.81;;;9.27;75.40
42067;BME280;27734;47.028;28.820;2022-09-21T04:51:03;100427.61;;;9.32;76.06
42067;BME280;27734;47.028;28.820;2022-09-21T04:53:35;100439.33;;;9.42;76.20
42067;BME280;27734;47.028;28.820;2022-09-21T04:56:08;100427.42;;;9.50;75.60
42067;BME280;27734;47.028;28.820;2022-09-21T04:58:40;100436.40;;;9.57;75.89
42067;BME280;27734;47.028;28.820;2022-09-21T05:01:11;100422.77;;;9.65;75.79
42067;BME280;27734;47.028;28.820;2022-09-21T05:03:42;100427.48;;;9.74;75.87
42067;BME280;27734;47.028;28.820;2022-09-21T05:06:14;100432.16;;;9.83;75.98
42067;BME280;27734;47.028;28.820;2022-09-21T05:08:45;100432.50;;;9.92;76.49
42067;BME280;27734;47.028;28.820;2022-09-21T05:11:33;100435.52;;;10.03;76.36
42067;BME280;27734;47.028;28.820;2022-09-21T05:14:05;100434.12;;;10.13;76.36
42067;BME280;27734;47.028;28.820;2022-09-21T05:16:38;100438.77;;;10.20;76.03
42067;BME280;27734;47.028;28.820;2022-09-21T05:19:09;100437.02;;;10.20;76.27
42067;BME280;27734;47.028;28.820;2022-09-21T05:21:43;100436.36;;;10.26;76.20
42067;BME280;27734;47.028;28.820;2022-09-21T05:24:15;100434.92;;;10.34;76.28
42067;BME280;27734;47.028;28.820;2022-09-21T05:26:46;100430.55;;;10.33;76.12
42067;BME280;27734;47.028;28.820;2022-09-21T05:29:19;100440.77;;;10.51;76.81
42067;BME280;27734;47.028;28.820;2022-09-21T05:31:53;100433.27;;;10.62;76.50
42067;BME280;27734;47.028;28.820;2022-09-21T05:34:35;100438.78;;;10.70;76.27
42067;BME280;27734;47.028;28.820;2022-09-21T05:37:16;100440.73;;;10.75;76.95
42067;BME280;27734;47.028;28.820;2022-09-21T05:39:53;100445.39;;;10.84;76.72
42067;BME280;27734;47.028;28.820;2022-09-21T05:42:26;100444.66;;;10.88;76.54
42067;BME280;27734;47.028;28.820;2022-09-21T05:44:58;100444.71;;;10.90;76.46
42067;BME280;27734;47.028;28.820;2022-09-21T05:47:37;100448.27;;;10.92;76.62
42067;BME280;27734;47.028;28.820;2022-09-21T05:50:22;100443.98;;;10.94;76.49
42067;BME280;27734;47.028;28.820;2022-09-21T05:53:08;100448.42;;;10.96;76.74
42067;BME280;27734;47.028;28.820;2022-09-21T05:55:49;100452.95;;;11.01;77.18
42067;BME280;27734;47.028;28.820;2022-09-21T05:58:30;100450.37;;;11.02;76.83
42067;BME280;27734;47.028;28.820;2022-09-21T06:01:22;100463.70;;;11.08;76.64
42067;BME280;27734;47.028;28.820;2022-09-21T06:03:59;100457.69;;;11.12;77.17
42067;BME280;27734;47.028;28.820;2022-09-21T06:06:36;100455.83;;;11.08;76.90
42067;BME280;27734;47.028;28.820;2022-09-21T06:09:47;100455.41;;;11.23;77.16
42067;BME280;27734;47.028;28.820;2022-09-21T06:12:26;100465.23;;;11.29;76.80
42067;BME280;27734;47.028;28.820;2022-09-21T06:14:59;100456.88;;;11.41;76.95
42067;BME280;27734;47.028;28.820;2022-09-21T06:17:32;100462.66;;;11.58;77.13
42067;BME280;27734;47.028;28.820;2022-09-21T06:20:05;100457.93;;;11.76;77.25
42067;BME280;27734;47.028;28.820;2022-09-21T06:22:38;100467.15;;;11.91;77.07
42067;BME280;27734;47.028;28.820;2022-09-21T06:25:10;100466.59;;;12.01;77.03
42067;BME280;27734;47.028;28.820;2022-09-21T06:27:42;100465.94;;;12.08;76.97
42067;BME280;27734;47.028;28.820;2022-09-21T06:30:14;100467.87;;;12.15;76.77
42067;BME280;27734;47.028;28.820;2022-09-21T06:32:45;100466.38;;;12.23;76.72
42067;BME280;27734;47.028;28.820;2022-09-21T06:35:19;100468.22;;;12.28;77.09
42067;BME280;27734;47.028;28.820;2022-09-21T06:37:58;100465.77;;;12.34;77.03
42067;BME280;27734;47.028;28.820;2022-09-21T06:40:30;100472.07;;;12.39;76.83
42067;BME280;27734;47.028;28.820;2022-09-21T06:43:06;100471.24;;;12.41;76.53
42067;BME280;27734;47.028;28.820;2022-09-21T06:45:41;100474.61;;;12.36;76.60
42067;BME280;27734;47.028;28.820;2022-09-21T06:48:13;100477.12;;;12.31;76.65
42067;BME280;27734;47.028;28.820;2022-09-21T06:50:45;100478.00;;;12.32;76.46
42067;BME280;27734;47.028;28.820;2022-09-21T06:53:17;100475.45;;;12.35;76.33
42067;BME280;27734;47.028;28.820;2022-09-21T06:56:03;100473.78;;;12.38;76.44
42067;BME280;27734;47.028;28.820;2022-09-21T06:58:36;100478.34;;;12.44;76.76
42067;BME280;27734;47.028;28.820;2022-09-21T07:01:09;100478.52;;;12.50;76.58
42067;BME280;27734;47.028;28.820;2022-09-21T07:03:42;100480.34;;;12.53;76.28
42067;BME280;27734;47.028;28.820;2022-09-21T07:06:13;100481.14;;;12.50;76.17
42067;BME280;27734;47.028;28.820;2022-09-21T07:08:44;100489.96;;;12.52;76.15
42067;BME280;27734;47.028;28.820;2022-09-21T07:11:19;100487.50;;;12.58;75.96
42067;BME280;27734;47.028;28.820;2022-09-21T07:13:52;100483.27;;;12.64;75.74
42067;BME280;27734;47.028;28.820;2022-09-21T07:16:24;100482.41;;;12.65;75.56
42067;BME280;27734;47.028;28.820;2022-09-21T07:18:58;100481.60;;;12.67;75.57
42067;BME280;27734;47.028;28.820;2022-09-21T07:21:31;100486.04;;;12.70;74.99
42067;BME280;27734;47.028;28.820;2022-09-21T07:24:03;100491.27;;;12.68;74.94
42067;BME280;27734;47.028;28.820;2022-09-21T07:26:34;100481.56;;;12.66;75.34
42067;BME280;27734;47.028;28.820;2022-09-21T07:29:13;100478.93;;;12.66;74.82
42067;BME280;27734;47.028;28.820;2022-09-21T07:31:45;100492.01;;;12.63;74.80
42067;BME280;27734;47.028;28.820;2022-09-21T07:34:33;100497.19;;;12.59;74.79
42067;BME280;27734;47.028;28.820;2022-09-21T07:37:07;100490.17;;;12.60;75.08
42067;BME280;27734;47.028;28.820;2022-09-21T07:39:38;100498.90;;;12.57;74.96
42067;BME280;27734;47.028;28.820;2022-09-21T07:42:10;100506.67;;;12.53;74.95
42067;BME280;27734;47.028;28.820;2022-09-21T07:44:43;100504.75;;;12.47;75.19
42067;BME280;27734;47.028;28.820;2022-09-21T07:47:15;100497.81;;;12.51;74.88
42067;BME280;27734;47.028;28.820;2022-09-21T07:49:47;100493.59;;;12.56;74.82
42067;BME280;27734;47.028;28.820;2022-09-21T07:52:20;100501.70;;;12.64;74.76
42067;BME280;27734;47.028;28.820;2022-09-21T07:54:52;100493.80;;;12.64;74.09
42067;BME280;27734;47.028;28.820;2022-09-21T07:57:24;100495.89;;;12.77;74.56
42067;BME280;27734;47.028;28.820;2022-09-21T08:00:16;100503.12;;;12.84;74.50
42067;BME280;27734;47.028;28.820;2022-09-21T08:02:48;100499.61;;;12.85;74.10
42067;BME280;27734;47.028;28.820;2022-09-21T08:05:20;100499.94;;;12.98;74.31
42067;BME280;27734;47.028;28.820;2022-09-21T08:07:55;100496.82;;;13.12;73.98
42067;BME280;27734;47.028;28.820;2022-09-21T08:10:27;100492.58;;;13.19;73.49
42067;BME280;27734;47.028;28.820;2022-09-21T08:13:08;100488.31;;;13.24;73.55
42067;BME280;27734;47.028;28.820;2022-09-21T08:15:40;100492.01;;;13.31;73.26
42067;BME280;27734;47.028;28.820;2022-09-21T08:18:13;100484.06;;;13.29;72.31
42067;BME280;27734;47.028;28.820;2022-09-21T08:20:44;100488.45;;;13.30;72.82
42067;BME280;27734;47.028;28.820;2022-09-21T08:23:23;100483.16;;;13.29;72.30
42067;BME280;27734;47.028;28.820;2022-09-21T08:25:58;100491.02;;;13.27;72.69
42067;BME280;27734;47.028;28.820;2022-09-21T08:28:33;100488.45;;;13.30;72.68
42067;BME280;27734;47.028;28.820;2022-09-21T08:31:14;100488.56;;;13.34;72.38
42067;BME280;27734;47.028;28.820;2022-09-21T08:33:46;100484.21;;;13.34;71.77
42067;BME280;27734;47.028;28.820;2022-09-21T08:36:19;100484.21;;;13.34;71.95
42067;BME280;27734;47.028;28.820;2022-09-21T08:38:50;100492.05;;;13.33;72.27
42067;BME280;27734;47.028;28.820;2022-09-21T08:41:40;100491.89;;;13.26;71.63
42067;BME280;27734;47.028;28.820;2022-09-21T08:44:20;100489.19;;;13.23;71.97
42067;BME280;27734;47.028;28.820;2022-09-21T08:47:00;100495.30;;;13.22;71.91
42067;BME280;27734;47.028;28.820;2022-09-21T08:49:34;100489.34;;;13.29;71.75
42067;BME280;27734;47.028;28.820;2022-09-21T08:52:12;100487.69;;;13.33;71.90
42067;BME280;27734;47.028;28.820;2022-09-21T08:54:58;100488.72;;;13.40;72.15
42067;BME280;27734;47.028;28.820;2022-09-21T08:57:32;100492.23;;;13.39;71.44
42067;BME280;27734;47.028;28.820;2022-09-21T09:00:12;100491.39;;;13.41;71.73
42067;BME280;27734;47.028;28.820;2022-09-21T09:05:51;100483.81;;;13.55;70.74
42067;BME280;27734;47.028;28.820;2022-09-21T09:12:02;100491.94;;;13.64;70.46
42067;BME280;27734;47.028;28.820;2022-09-21T09:14:51;100496.33;;;13.64;70.72
42067;BME280;27734;47.028;28.820;2022-09-21T09:17:43;100489.37;;;13.68;70.46
42067;BME280;27734;47.028;28.820;2022-09-21T09:20:20;100492.00;;;13.68;70.15
42067;BME280;27734;47.028;28.820;2022-09-21T09:23:01;100492.81;;;13.63;69.89
42067;BME280;27734;47.028;28.820;2022-09-21T09:25:38;100478.82;;;13.68;69.58
42067;BME280;27734;47.028;28.820;2022-09-21T09:28:31;100481.70;;;13.78;70.10
42067;BME280;27734;47.028;28.820;2022-09-21T09:31:11;100477.75;;;13.99;70.65
42067;BME280;27734;47.028;28.820;2022-09-21T09:33:50;100472.80;;;14.14;69.51
42067;BME280;27734;47.028;28.820;2022-09-21T09:36:25;100469.47;;;14.23;69.47
42067;BME280;27734;47.028;28.820;2022-09-21T09:39:08;100476.63;;;14.30;69.14
42067;BME280;27734;47.028;28.820;2022-09-21T09:42:08;100471.44;;;14.35;69.52
42067;BME280;27734;47.028;28.820;2022-09-21T09:44:58;100468.22;;;14.50;69.41
42067;BME280;27734;47.028;28.820;2022-09-21T09:47:39;100465.06;;;14.66;69.00
42067;BME280;27734;47.028;28.820;2022-09-21T09:50:20;100472.30;;;14.78;69.07
42067;BME280;27734;47.028;28.820;2022-09-21T09:53:08;100462.77;;;14.88;68.51
42067;BME280;27734;47.028;28.820;2022-09-21T09:55:45;100467.42;;;15.01;68.65
42067;BME280;27734;47.028;28.820;2022-09-21T09:58:25;100467.52;;;15.07;68.31
42067;BME280;27734;47.028;28.820;2022-09-21T10:01:08;100462.47;;;15.21;68.04
42067;BME280;27734;47.028;28.820;2022-09-21T10:03:41;100460.00;;;15.32;68.24
42067;BME280;27734;47.028;28.820;2022-09-21T10:06:31;100439.84;;;15.40;66.72
42067;BME280;27734;47.028;28.820;2022-09-21T10:09:18;100442.44;;;15.37;67.67
42067;BME280;27734;47.028;28.820;2022-09-21T10:11:52;100444.20;;;15.37;66.94
42067;BME280;27734;47.028;28.820;2022-09-21T10:14:25;100439.70;;;15.31;67.45
42067;BME280;27734;47.028;28.820;2022-09-21T10:17:06;100438.75;;;15.26;66.45
42067;BME280;27734;47.028;28.820;2022-09-21T10:19:38;100437.60;;;15.08;67.40
42067;BME280;27734;47.028;28.820;2022-09-21T10:22:17;100448.22;;;15.12;66.06
42067;BME280;27734;47.028;28.820;2022-09-21T10:24:53;100433.30;;;15.15;66.41
42067;BME280;27734;47.028;28.820;2022-09-21T10:27:27;100448.17;;;15.08;66.67
42067;BME280;27734;47.028;28.820;2022-09-21T10:30:04;100442.08;;;15.14;65.58
42067;BME280;27734;47.028;28.820;2022-09-21T10:32:57;100440.27;;;15.10;66.63
42067;BME280;27734;47.028;28.820;2022-09-21T10:35:28;100428.13;;;15.23;65.66
42067;BME280;27734;47.028;28.820;2022-09-21T10:38:17;100429.08;;;15.28;65.56
42067;BME280;27734;47.028;28.820;2022-09-21T10:40:48;100426.78;;;15.51;66.21
42067;BME280;27734;47.028;28.820;2022-09-21T10:43:27;100431.94;;;15.42;65.74
42067;BME280;27734;47.028;28.820;2022-09-21T10:46:00;100428.23;;;15.29;66.35
42067;BME280;27734;47.028;28.820;2022-09-21T10:48:37;100422.04;;;15.27;64.64
42067;BME280;27734;47.028;28.820;2022-09-21T10:51:24;100423.75;;;15.25;64.89
42067;BME280;27734;47.028;28.820;2022-09-21T10:54:08;100429.17;;;15.34;65.36
42067;BME280;27734;47.028;28.820;2022-09-21T10:57:12;100423.89;;;15.34;65.75
42067;BME280;27734;47.028;28.820;2022-09-21T10:59:45;100418.06;;;15.57;64.96
42067;BME280;27734;47.028;28.820;2022-09-21T11:02:35;100404.03;;;15.64;65.09
42067;BME280;27734;47.028;28.820;2022-09-21T11:05:13;100412.92;;;15.68;63.61
42067;BME280;27734;47.028;28.820;2022-09-21T11:07:51;100412.03;;;15.69;64.66
42067;BME280;27734;47.028;28.820;2022-09-21T11:10:37;100411.17;;;15.70;63.48
42067;BME280;27734;47.028;28.820;2022-09-21T11:13:28;100406.70;;;15.66;64.06
42067;BME280;27734;47.028;28.820;2022-09-21T11:16:19;100402.23;;;15.60;63.30
42067;BME280;27734;47.028;28.820;2022-09-21T11:19:04;100400.38;;;15.54;62.61
42067;BME280;27734;47.028;28.820;2022-09-21T11:21:45;100388.75;;;15.41;63.16
42067;BME280;27734;47.028;28.820;2022-09-21T11:24:25;100397.59;;;15.43;62.37
42067;BME280;27734;47.028;28.820;2022-09-21T11:27:11;100398.44;;;15.42;62.59
42067;BME280;27734;47.028;28.820;2022-09-21T11:30:04;100397.59;;;15.43;63.41
42067;BME280;27734;47.028;28.820;2022-09-21T11:33:05;100377.24;;;15.39;62.86
42067;BME280;27734;47.028;28.820;2022-09-21T11:35:53;100388.91;;;15.52;62.87
42067;BME280;27734;47.028;28.820;2022-09-21T11:38:38;100396.02;;;15.58;62.09
42067;BME280;27734;47.028;28.820;2022-09-21T11:41:43;100397.76;;;15.56;62.06
42067;BME280;27734;47.028;28.820;2022-09-21T11:44:36;100391.55;;;15.52;62.04
42067;BME280;27734;47.028;28.820;2022-09-21T11:47:27;100386.22;;;15.49;61.40
42067;BME280;27734;47.028;28.820;2022-09-21T11:50:12;100383.70;;;15.58;61.96
42067;BME280;27734;47.028;28.820;2022-09-21T11:53:08;100380.39;;;15.76;62.15
42067;BME280;27734;47.028;28.820;2022-09-21T11:58:57;100363.23;;;16.15;61.92
42067;BME280;27734;47.028;28.820;2022-09-21T12:01:46;100370.61;;;16.46;62.17
42067;BME280;27734;47.028;28.820;2022-09-21T12:04:57;100361.18;;;16.79;61.49
42067;BME280;27734;47.028;28.820;2022-09-21T12:08:03;100363.98;;;16.94;60.32
42067;BME280;27734;47.028;28.820;2022-09-21T12:10:56;100351.48;;;16.82;60.17
42067;BME280;27734;47.028;28.820;2022-09-21T12:13:42;100355.93;;;16.85;60.29
42067;BME280;27734;47.028;28.820;2022-09-21T12:16:27;100356.81;;;16.85;60.54
42067;BME280;27734;47.028;28.820;2022-09-21T12:19:21;100364.76;;;16.85;59.13
42067;BME280;27734;47.028;28.820;2022-09-21T12:22:04;100360.31;;;16.80;59.91
42067;BME280;27734;47.028;28.820;2022-09-21T12:24:45;100366.41;;;16.69;57.97
42067;BME280;27734;47.028;28.820;2022-09-21T12:27:30;100365.41;;;16.57;58.11
42067;BME280;27734;47.028;28.820;2022-09-21T12:30:17;100368.02;;;16.52;57.79
42067;BME280;27734;47.028;28.820;2022-09-21T12:33:02;100352.98;;;16.51;58.08
42067;BME280;27734;47.028;28.820;2022-09-21T12:38:29;100355.87;;;16.79;58.28
42067;BME280;27734;47.028;28.820;2022-09-21T12:41:14;100358.63;;;16.86;58.22
42067;BME280;27734;47.028;28.820;2022-09-21T12:44:03;100356.05;;;16.96;58.05
42067;BME280;27734;47.028;28.820;2022-09-21T12:46:42;100355.13;;;16.94;57.64
42067;BME280;27734;47.028;28.820;2022-09-21T12:49:25;100353.28;;;16.85;57.24
42067;BME280;27734;47.028;28.820;2022-09-21T12:52:02;100350.67;;;16.86;56.72
42067;BME280;27734;47.028;28.820;2022-09-21T12:54:44;100337.34;;;16.80;57.13
42067;BME280;27734;47.028;28.820;2022-09-21T12:57:23;100347.97;;;16.83;56.01
42067;BME280;27734;47.028;28.820;2022-09-21T13:00:04;100354.25;;;16.93;57.30
42067;BME280;27734;47.028;28.820;2022-09-21T13:02:38;100347.28;;;17.09;57.10
42067;BME280;27734;47.028;28.820;2022-09-21T13:05:19;100348.27;;;17.20;57.41
42067;BME280;27734;47.028;28.820;2022-09-21T13:08:09;100355.37;;;17.31;56.66
42067;BME280;27734;47.028;28.820;2022-09-21T13:11:03;100358.90;;;17.25;56.75
42067;BME280;27734;47.028;28.820;2022-09-21T13:13:55;100357.88;;;17.07;57.13
42067;BME280;27734;47.028;28.820;2022-09-21T13:16:31;100357.78;;;16.95;57.64
42067;BME280;27734;47.028;28.820;2022-09-21T13:19:14;100373.60;;;16.84;57.77
42067;BME280;27734;47.028;28.820;2022-09-21T13:22:12;100374.34;;;16.69;58.05
42067;BME280;27734;47.028;28.820;2022-09-21T13:25:17;100378.66;;;16.57;58.04
42067;BME280;27734;47.028;28.820;2022-09-21T13:28:07;100381.27;;;16.52;58.48
42067;BME280;27734;47.028;28.820;2022-09-21T13:31:27;100382.00;;;16.39;58.35
42067;BME280;27734;47.028;28.820;2022-09-21T13:34:03;100379.17;;;16.22;58.92
42067;BME280;27734;47.028;28.820;2022-09-21T13:36:36;100385.27;;;16.11;58.58
42067;BME280;27734;47.028;28.820;2022-09-21T13:39:19;100379.00;;;16.06;59.29
42067;BME280;27734;47.028;28.820;2022-09-21T13:41:51;100376.25;;;15.97;59.50
42067;BME280;27734;47.028;28.820;2022-09-21T13:44:39;100381.45;;;15.89;59.32
42067;BME280;27734;47.028;28.820;2022-09-21T13:47:12;100384.93;;;15.84;59.36
42067;BME280;27734;47.028;28.820;2022-09-21T13:49:51;100391.84;;;15.74;59.52
42067;BME280;27734;47.028;28.820;2022-09-21T13:52:29;100392.59;;;15.65;59.56